Time,TemperatureF,DewpointF,PressureIn,WindDirection,WindDirectionDegrees,WindSpeedMPH,WindSpeedGustMPH,Humidity,HourlyPrecipIn,Conditions,Clouds,dailyrainin,SoftwareType,DateUTC
2013-02-04 00:02:00,79.0,79.0,29.79,North,1,0.0,1.0,99,0.00,,,0.00,,2013-02-03 14:02:00,
2013-02-04 00:11:00,79.0,79.0,29.79,North,1,0.0,1.0,99,0.00,,,0.00,,2013-02-03 14:11:00,
2013-02-04 00:21:00,79.0,79.0,29.79,North,1,0.0,1.0,99,0.00,,,0.00,,2013-02-03 14:21:00,
2013-02-04 00:32:00,78.0,78.0,29.78,North,1,0.0,1.0,99,0.00,,,0.00,,2013-02-03 14:32:00,
2013-02-04 00:42:00,78.0,78.0,29.78,North,1,0.0,1.0,99,0.00,,,0.00,,2013-02-03 14:42:00,
2013-02-04 00:52:00,78.0,78.0,29.78,North,1,0.0,1.0,99,0.00,,,0.00,,2013-02-03 14:52:00,
2013-02-04 01:02:00,78.0,78.0,29.78,North,0,0.0,0.0,99,0.00,,,0.00,,2013-02-03 15:02:00,
2013-02-04 01:11:00,78.0,78.0,29.78,North,0,0.0,0.0,99,0.00,,,0.00,,2013-02-03 15:11:00,
2013-02-04 01:21:00,78.0,78.0,29.77,North,0,0.0,0.0,99,0.00,,,0.00,,2013-02-03 15:21:00,
2013-02-04 01:32:00,78.0,78.0,29.76,North,1,0.0,2.0,99,0.00,,,0.00,,2013-02-03 15:32:00,
2013-02-04 01:41:00,78.0,78.0,29.76,North,1,0.0,2.0,99,0.00,,,0.00,,2013-02-03 15:41:00,
2013-02-04 01:51:00,78.0,78.0,29.76,North,1,0.0,2.0,99,0.00,,,0.00,,2013-02-03 15:51:00,
2013-02-04 02:02:00,78.0,78.0,29.76,North,0,0.0,0.0,99,0.00,,,0.00,,2013-02-03 16:02:00,
2013-02-04 02:11:00,78.0,78.0,29.76,North,0,0.0,0.0,99,0.00,,,0.00,,2013-02-03 16:11:00,
2013-02-04 02:21:00,77.0,77.0,29.75,North,0,0.0,0.0,99,0.00,,,0.00,,2013-02-03 16:21:00,
2013-02-04 02:32:00,77.0,77.0,29.75,North,0,0.0,0.0,99,0.00,,,0.00,,2013-02-03 16:32:00,
2013-02-04 02:41:00,77.0,77.0,29.75,North,0,0.0,0.0,99,0.00,,,0.00,,2013-02-03 16:41:00,
2013-02-04 02:52:00,77.0,77.0,29.75,North,0,0.0,0.0,99,0.00,,,0.00,,2013-02-03 16:52:00,
2013-02-04 03:02:00,77.0,77.0,29.75,North,0,0.0,0.0,99,0.00,,,0.00,,2013-02-03 17:02:00,
2013-02-04 03:11:00,77.0,77.0,29.75,North,0,0.0,0.0,99,0.00,,,0.00,,2013-02-03 17:11:00,
2013-02-04 03:21:00,77.0,77.0,29.75,North,0,0.0,0.0,99,0.00,,,0.00,,2013-02-03 17:21:00,
2013-02-04 03:31:00,77.0,77.0,29.75,North,0,0.0,0.0,99,0.00,,,0.00,,2013-02-03 17:31:00,
2013-02-04 03:41:00,77.0,77.0,29.75,North,0,0.0,0.0,99,0.00,,,0.00,,2013-02-03 17:41:00,
2013-02-04 03:52:00,77.0,77.0,29.75,North,0,0.0,0.0,99,0.00,,,0.00,,2013-02-03 17:52:00,
2013-02-04 04:02:00,77.0,77.0,29.76,North,0,0.0,0.0,99,0.00,,,0.00,,2013-02-03 18:02:00,
2013-02-04 04:11:00,77.0,77.0,29.76,North,0,0.0,0.0,99,0.00,,,0.00,,2013-02-03 18:11:00,
2013-02-04 04:23:00,77.0,77.0,29.76,North,0,0.0,0.0,99,0.00,,,0.00,,2013-02-03 18:23:00,
2013-02-04 04:32:00,77.0,77.0,29.76,North,1,0.0,1.0,99,0.00,,,0.00,,2013-02-03 18:32:00,
2013-02-04 04:41:00,77.0,77.0,29.76,North,1,0.0,1.0,99,0.00,,,0.00,,2013-02-03 18:41:00,
2013-02-04 04:52:00,77.0,77.0,29.75,North,1,0.0,2.0,99,0.00,,,0.00,,2013-02-03 18:52:00,
2013-02-04 05:02:00,77.0,77.0,29.77,NNW,332,0.0,1.0,99,0.00,,,0.00,,2013-02-03 19:02:00,
2013-02-04 05:11:00,77.0,77.0,29.77,NNW,332,0.0,1.0,99,0.00,,,0.00,,2013-02-03 19:11:00,
2013-02-04 05:21:00,77.0,77.0,29.76,North,7,0.0,2.0,99,0.00,,,0.00,,2013-02-03 19:21:00,
2013-02-04 05:31:00,76.0,76.0,29.77,North,0,0.0,0.0,99,0.00,,,0.00,,2013-02-03 19:31:00,
2013-02-04 05:41:00,76.0,76.0,29.77,North,0,0.0,0.0,99,0.00,,,0.00,,2013-02-03 19:41:00,
2013-02-04 05:51:00,76.0,76.0,29.78,North,9,0.0,2.0,99,0.00,,,0.00,,2013-02-03 19:51:00,
2013-02-04 06:01:00,76.0,76.0,29.78,NW,314,0.0,1.0,99,0.00,,,0.00,,2013-02-03 20:01:00,
2013-02-04 06:11:00,76.0,76.0,29.78,NW,314,0.0,1.0,99,0.00,,,0.00,,2013-02-03 20:11:00,
2013-02-04 06:21:00,76.0,76.0,29.78,NW,314,0.0,1.0,99,0.00,,,0.00,,2013-02-03 20:21:00,
2013-02-04 06:32:00,76.0,76.0,29.80,North,0,0.0,0.0,99,0.00,,,0.00,,2013-02-03 20:32:00,
2013-02-04 06:42:00,76.0,76.0,29.80,North,0,0.0,0.0,99,0.00,,,0.00,,2013-02-03 20:42:00,
2013-02-04 06:52:00,76.0,76.0,29.80,NNW,344,0.0,1.0,99,0.00,,,0.00,,2013-02-03 20:52:00,
2013-02-04 07:02:00,77.0,77.0,29.81,North,1,0.0,1.0,99,0.00,,,0.00,,2013-02-03 21:02:00,
2013-02-04 07:11:00,77.0,77.0,29.81,North,1,0.0,1.0,99,0.00,,,0.00,,2013-02-03 21:11:00,
2013-02-04 07:21:00,78.0,78.0,29.82,NW,318,0.0,2.0,99,0.00,,,0.00,,2013-02-03 21:21:00,
2013-02-04 07:32:00,80.0,80.0,29.83,NW,314,0.0,1.0,99,0.00,,,0.00,,2013-02-03 21:32:00,
2013-02-04 07:42:00,80.0,80.0,29.83,NW,314,0.0,1.0,99,0.00,,,0.00,,2013-02-03 21:42:00,
2013-02-04 07:51:00,80.0,80.0,29.83,NW,314,0.0,1.0,99,0.00,,,0.00,,2013-02-03 21:51:00,
2013-02-04 08:01:00,83.0,83.0,29.83,North,350,0.0,4.0,99,0.00,,,0.00,,2013-02-03 22:01:00,
2013-02-04 08:11:00,83.0,83.0,29.83,North,350,0.0,4.0,99,0.00,,,0.00,,2013-02-03 22:11:00,
2013-02-04 08:21:00,85.0,85.0,29.83,NNW,338,0.0,2.0,99,0.00,,,0.00,,2013-02-03 22:21:00,
2013-02-04 08:32:00,85.0,85.0,29.83,NNW,338,0.0,2.0,99,0.00,,,0.00,,2013-02-03 22:32:00,
2013-02-04 08:41:00,85.0,85.0,29.83,NNW,338,0.0,2.0,99,0.00,,,0.00,,2013-02-03 22:41:00,
2013-02-04 08:51:00,93.0,90.0,29.83,North,351,0.0,2.0,90,0.00,,,0.00,,2013-02-03 22:51:00,
2013-02-04 09:01:00,93.0,90.0,29.83,North,351,0.0,2.0,90,0.00,,,0.00,,2013-02-03 23:01:00,
2013-02-04 09:11:00,93.0,90.0,29.83,North,351,0.0,2.0,90,0.00,,,0.00,,2013-02-03 23:11:00,
2013-02-04 09:21:00,93.0,90.0,29.83,North,351,0.0,2.0,90,0.00,,,0.00,,2013-02-03 23:21:00,
2013-02-04 09:32:00,97.0,87.0,29.84,WNW,300,0.0,2.0,73,0.00,,,0.00,,2013-02-03 23:32:00,
2013-02-04 09:42:00,97.0,87.0,29.84,WNW,300,0.0,2.0,73,0.00,,,0.00,,2013-02-03 23:42:00,
2013-02-04 09:52:00,96.0,86.0,29.84,WNW,303,0.0,2.0,74,0.00,,,0.00,,2013-02-03 23:52:00,
2013-02-04 10:01:00,97.0,88.0,29.83,NW,315,0.0,3.0,75,0.00,,,0.00,,2013-02-04 00:01:00,
2013-02-04 10:11:00,97.0,88.0,29.83,NW,315,0.0,3.0,75,0.00,,,0.00,,2013-02-04 00:11:00,
2013-02-04 10:21:00,98.0,86.0,29.83,South,183,1.0,4.0,70,0.00,,,0.00,,2013-02-04 00:21:00,
2013-02-04 10:31:00,98.0,86.0,29.83,SSE,165,3.0,6.0,68,0.00,,,0.00,,2013-02-04 00:31:00,
2013-02-04 10:41:00,98.0,86.0,29.83,SSE,165,3.0,6.0,68,0.00,,,0.00,,2013-02-04 00:41:00,
2013-02-04 10:51:00,98.0,87.0,29.84,SSE,160,2.0,6.0,71,0.00,,,0.00,,2013-02-04 00:51:00,
2013-02-04 11:01:00,97.0,86.0,29.84,South,186,1.0,7.0,71,0.00,,,0.00,,2013-02-04 01:01:00,
2013-02-04 11:11:00,97.0,86.0,29.84,South,186,1.0,7.0,71,0.00,,,0.00,,2013-02-04 01:11:00,
2013-02-04 11:21:00,98.0,86.0,29.83,SW,218,3.0,8.0,70,0.00,,,0.00,,2013-02-04 01:21:00,
2013-02-04 11:31:00,99.0,87.0,29.83,South,177,2.0,7.0,70,0.00,,,0.00,,2013-02-04 01:31:00,
2013-02-04 11:41:00,99.0,87.0,29.83,South,177,2.0,7.0,70,0.00,,,0.00,,2013-02-04 01:41:00,
2013-02-04 11:52:00,98.0,87.0,29.82,South,171,2.0,8.0,72,0.00,,,0.00,,2013-02-04 01:52:00,
2013-02-04 12:01:00,98.0,87.0,29.82,SSE,167,1.0,8.0,72,0.00,,,0.00,,2013-02-04 02:01:00,
2013-02-04 12:11:00,98.0,87.0,29.82,SSE,167,1.0,8.0,72,0.00,,,0.00,,2013-02-04 02:11:00,
2013-02-04 12:21:00,98.0,87.0,29.82,SSE,167,1.0,8.0,72,0.00,,,0.00,,2013-02-04 02:21:00,
2013-02-04 12:31:00,98.0,88.0,29.80,SSE,168,4.0,10.0,73,0.00,,,0.00,,2013-02-04 02:31:00,
2013-02-04 12:42:00,98.0,88.0,29.80,SSE,168,4.0,10.0,73,0.00,,,0.00,,2013-02-04 02:42:00,
2013-02-04 12:52:00,98.0,88.0,29.80,SSE,168,4.0,10.0,73,0.00,,,0.00,,2013-02-04 02:52:00,
2013-02-04 13:01:00,97.0,88.0,29.80,SSE,156,2.0,8.0,76,0.00,,,0.00,,2013-02-04 03:01:00,
2013-02-04 13:11:00,97.0,88.0,29.80,SSE,156,2.0,8.0,76,0.00,,,0.00,,2013-02-04 03:11:00,
2013-02-04 13:21:00,97.0,88.0,29.79,South,190,4.0,9.0,76,0.00,,,0.00,,2013-02-04 03:21:00,
2013-02-04 13:31:00,98.0,88.0,29.78,SSW,199,4.0,11.0,74,0.00,,,0.00,,2013-02-04 03:31:00,
2013-02-04 13:41:00,98.0,88.0,29.78,SSW,199,4.0,11.0,74,0.00,,,0.00,,2013-02-04 03:41:00,
2013-02-04 13:51:00,98.0,88.0,29.78,SSW,199,4.0,11.0,74,0.00,,,0.00,,2013-02-04 03:51:00,
2013-02-04 14:01:00,98.0,88.0,29.78,South,175,3.0,12.0,74,0.00,,,0.00,,2013-02-04 04:01:00,
2013-02-04 14:11:00,98.0,88.0,29.78,South,175,3.0,12.0,74,0.00,,,0.00,,2013-02-04 04:11:00,
2013-02-04 14:21:00,98.0,88.0,29.77,SSW,198,2.0,9.0,74,0.00,,,0.00,,2013-02-04 04:21:00,
2013-02-04 14:31:00,98.0,87.0,29.77,WSW,248,4.0,12.0,72,0.00,,,0.00,,2013-02-04 04:31:00,
2013-02-04 14:41:00,98.0,87.0,29.77,WSW,248,4.0,12.0,72,0.00,,,0.00,,2013-02-04 04:41:00,
2013-02-04 14:52:00,98.0,88.0,29.76,South,191,4.0,11.0,74,0.00,,,0.00,,2013-02-04 04:52:00,
2013-02-04 15:03:00,98.0,87.0,29.75,South,169,2.0,11.0,71,0.00,,,0.00,,2013-02-04 05:03:00,
2013-02-04 15:11:00,98.0,87.0,29.75,South,169,2.0,11.0,71,0.00,,,0.00,,2013-02-04 05:11:00,
2013-02-04 15:22:00,98.0,87.0,29.75,South,169,5.0,11.0,71,0.00,,,0.00,,2013-02-04 05:22:00,
2013-02-04 15:33:00,98.0,87.0,29.75,South,187,2.0,11.0,71,0.00,,,0.00,,2013-02-04 05:33:00,
2013-02-04 15:41:00,98.0,87.0,29.75,South,187,2.0,11.0,71,0.00,,,0.00,,2013-02-04 05:41:00,
2013-02-04 15:52:00,98.0,87.0,29.75,South,187,2.0,11.0,71,0.00,,,0.00,,2013-02-04 05:52:00,
2013-02-04 16:01:00,98.0,87.0,29.75,SSE,158,2.0,13.0,71,0.00,,,0.00,,2013-02-04 06:01:00,
2013-02-04 16:11:00,98.0,87.0,29.75,SSE,158,2.0,13.0,71,0.00,,,0.00,,2013-02-04 06:11:00,
2013-02-04 16:21:00,98.0,87.0,29.75,SSE,158,2.0,13.0,71,0.00,,,0.00,,2013-02-04 06:21:00,
2013-02-04 16:31:00,98.0,85.0,29.74,SSW,195,3.0,9.0,66,0.00,,,0.00,,2013-02-04 06:31:00,
2013-02-04 16:41:00,98.0,85.0,29.74,SSW,195,3.0,9.0,66,0.00,,,0.00,,2013-02-04 06:41:00,
2013-02-04 16:52:00,97.0,86.0,29.75,South,173,3.0,11.0,71,0.00,,,0.00,,2013-02-04 06:52:00,
2013-02-04 17:01:00,97.0,86.0,29.75,SSW,199,2.0,8.0,70,0.00,,,0.00,,2013-02-04 07:01:00,
2013-02-04 17:11:00,97.0,86.0,29.75,SSW,199,2.0,8.0,70,0.00,,,0.00,,2013-02-04 07:11:00,
2013-02-04 17:21:00,96.0,85.0,29.76,SW,224,0.0,8.0,72,0.00,,,0.00,,2013-02-04 07:21:00,
2013-02-04 17:31:00,96.0,85.0,29.76,SW,218,1.0,11.0,71,0.00,,,0.00,,2013-02-04 07:31:00,
2013-02-04 17:41:00,96.0,85.0,29.76,SW,218,1.0,11.0,71,0.00,,,0.00,,2013-02-04 07:41:00,
2013-02-04 17:51:00,95.0,85.0,29.78,South,181,1.0,8.0,74,0.00,,,0.00,,2013-02-04 07:51:00,
2013-02-04 18:01:00,89.0,83.0,29.78,SSW,213,2.0,8.0,82,0.00,,,0.00,,2013-02-04 08:01:00,
2013-02-04 18:11:00,89.0,83.0,29.78,SSW,213,2.0,8.0,82,0.00,,,0.00,,2013-02-04 08:11:00,
2013-02-04 18:21:00,89.0,84.0,29.78,SW,233,0.0,7.0,85,0.00,,,0.00,,2013-02-04 08:21:00,
2013-02-04 18:31:00,88.0,84.0,29.78,WNW,299,2.0,5.0,88,0.00,,,0.00,,2013-02-04 08:31:00,
2013-02-04 18:41:00,88.0,84.0,29.78,WNW,299,2.0,5.0,88,0.00,,,0.00,,2013-02-04 08:41:00,
2013-02-04 18:52:00,88.0,84.0,29.78,WNW,299,2.0,5.0,88,0.00,,,0.00,,2013-02-04 08:52:00,
2013-02-04 19:01:00,87.0,85.0,29.79,WNW,291,0.0,4.0,93,0.00,,,0.00,,2013-02-04 09:01:00,
2013-02-04 19:11:00,87.0,85.0,29.79,WNW,291,0.0,4.0,93,0.00,,,0.00,,2013-02-04 09:11:00,
2013-02-04 19:21:00,87.0,85.0,29.79,WNW,291,0.0,4.0,93,0.00,,,0.00,,2013-02-04 09:21:00,
2013-02-04 19:31:00,87.0,85.0,29.80,WSW,257,0.0,7.0,95,0.00,,,0.00,,2013-02-04 09:31:00,
2013-02-04 19:41:00,87.0,85.0,29.80,WSW,257,0.0,7.0,95,0.00,,,0.00,,2013-02-04 09:41:00,
2013-02-04 19:52:00,86.0,84.0,29.81,West,270,0.0,7.0,94,0.00,,,0.00,,2013-02-04 09:52:00,
2013-02-04 20:01:00,86.0,85.0,29.82,NW,312,0.0,2.0,96,0.00,,,0.00,,2013-02-04 10:01:00,
2013-02-04 20:11:00,86.0,85.0,29.82,NW,312,0.0,2.0,96,0.00,,,0.00,,2013-02-04 10:11:00,
2013-02-04 20:21:00,86.0,85.0,29.82,WNW,297,0.0,5.0,96,0.00,,,0.00,,2013-02-04 10:21:00,
2013-02-04 20:32:00,86.0,85.0,29.83,NW,307,0.0,2.0,97,0.00,,,0.00,,2013-02-04 10:32:00,
2013-02-04 20:41:00,86.0,85.0,29.83,NW,307,0.0,2.0,97,0.00,,,0.00,,2013-02-04 10:41:00,
2013-02-04 20:51:00,86.0,85.0,29.83,NW,307,0.0,2.0,97,0.00,,,0.00,,2013-02-04 10:51:00,
2013-02-04 21:01:00,86.0,85.0,29.83,WNW,298,1.0,3.0,96,0.00,,,0.00,,2013-02-04 11:01:00,
2013-02-04 21:11:00,86.0,85.0,29.83,WNW,298,1.0,3.0,96,0.00,,,0.00,,2013-02-04 11:11:00,
2013-02-04 21:22:00,86.0,85.0,29.83,WNW,298,1.0,3.0,96,0.00,,,0.00,,2013-02-04 11:22:00,
2013-02-04 21:32:00,86.0,85.0,29.83,WSW,248,0.0,4.0,96,0.00,,,0.00,,2013-02-04 11:32:00,
2013-02-04 21:41:00,86.0,85.0,29.83,WSW,248,0.0,4.0,96,0.00,,,0.00,,2013-02-04 11:41:00,
2013-02-04 21:52:00,85.0,84.0,29.83,NW,314,0.0,2.0,97,0.00,,,0.00,,2013-02-04 11:52:00,
2013-02-04 22:02:00,85.0,84.0,29.84,NW,322,0.0,4.0,97,0.00,,,0.00,,2013-02-04 12:02:00,
2013-02-04 22:12:00,85.0,84.0,29.84,NW,322,0.0,4.0,97,0.00,,,0.00,,2013-02-04 12:12:00,
2013-02-04 22:21:00,85.0,84.0,29.84,NW,314,0.0,2.0,97,0.00,,,0.00,,2013-02-04 12:21:00,
2013-02-04 22:32:00,84.0,83.0,29.85,NW,314,0.0,2.0,98,0.00,,,0.00,,2013-02-04 12:32:00,
2013-02-04 22:42:00,84.0,83.0,29.85,NW,314,0.0,2.0,98,0.00,,,0.00,,2013-02-04 12:42:00,
2013-02-04 22:52:00,84.0,84.0,29.86,NW,314,0.0,1.0,99,0.00,,,0.00,,2013-02-04 12:52:00,
2013-02-04 23:02:00,84.0,84.0,29.85,NW,314,0.0,1.0,99,0.00,,,0.00,,2013-02-04 13:02:00,
2013-02-04 23:11:00,84.0,84.0,29.85,NW,314,0.0,1.0,99,0.00,,,0.00,,2013-02-04 13:11:00,
2013-02-04 23:21:00,84.0,84.0,29.85,NW,314,0.0,1.0,99,0.00,,,0.00,,2013-02-04 13:21:00,
2013-02-04 23:32:00,83.0,83.0,29.85,NW,314,0.0,2.0,99,0.00,,,0.00,,2013-02-04 13:32:00,
2013-02-04 23:41:00,83.0,83.0,29.85,NW,314,0.0,2.0,99,0.00,,,0.00,,2013-02-04 13:41:00,
2013-02-04 23:52:00,83.0,83.0,29.85,NW,314,0.0,1.0,99,0.00,,,0.00,,2013-02-04 13:52:00,